Bowling Green, SC

7:15 AM EDT on October 23, 2014 (GMT -0400)
South Gastonia | Change Station
CLOSE
Current Station
Personal Weather Station
Location: Gastonia, NC
Elevation: 705 ft
Nearby Weather Stations

Elev 705 ft 35.18 °N, 81.20 °W | Updated 9 minutes ago

Clear
Clear
36.2 °F
Feels Like 36 °F
N
0.0
Wind Variable Wind from NW
Gusts 1.0 mph

Today
High -- | Low -- °F
--% Chance of Precip.
Yesterday
High -- | Low -- °F
Precip. -- in
7:37 AM 6:40 PM
Waning Crescent, 0% visible
Pressure 30.09 in
Visibility 10.0 miles
Clouds Clear
Windchill 36 °F
Dew Point 35 °F
Humidity 95%
Rainfall 0.00 in
Snow Depth Not available.
UV 0 out of 12
Pollen 3.10 out of 12
Ozone Good
Flu Activity Sporadic
METAR KAKH 231054Z AUTO 00000KT 10SM CLR 04/02 A3009 RMK AO2 SLP189 T00390017

More Conditions Fewer Conditions

Pressure 30.09 in
Visibility 10.0 miles
Clouds Clear
Windchill 36 °F
Dew Point 35 °F
Humidity 95%
Rainfall 0.00 in
Snow Depth Not available.
UV 0 out of 12
Pollen 3.10 out of 12
Ozone Good
Flu Activity Sporadic
METAR KAKH 231054Z AUTO 00000KT 10SM CLR 04/02 A3009 RMK AO2 SLP189 T00390017

More Conditions Fewer Conditions

10-Day Weather Forecast

Almanac

Astronomy

Oct. 23, 2014 Rise Set
Actual Time 7:37 AM EDT 6:40 PM EDT
Civil Twilight 7:12 AM EDT 7:05 PM EDT
Nautical Twilight 6:42 AM EDT 7:35 PM EDT
Astronomical Twilight 6:12 AM EDT 8:04 PM EDT
Moon 7:16 AM EDT 6:40 PM EDT
Length of Visible Light 11h 53m
Length of Day
11h 02m
Tomorrow will be 2m 3s shorter.
Waning Crescent, 0% of the Moon is Illuminated
Today
Waning Crescent
Oct 23
New
Oct 30
First Quarter
Nov 6
Full
Nov 14
Last Quarter

Today's Extremes

State Highs State Lows

Community

WunderPhotos

Upload Photos

1,764,204 photos uploaded!

Nearby

Air Quality

  Air Quality AQ Index Pollutant
Yesterday Good
OZONE
Current Good
OZONE

Snow Depth

Station Depth Elevation
No new snow has been reported.

Earthquake Activity

City Distance Mag. Time & Date
No recent earthquake activity has been reported nearby.
Minimum magnitude displayed is 2.5.

Coastal Water Temperatures

Place Temperature
No Stations Reporting

Nearby Weather Stations